Aktualne dane pomiarowe

Uwaga, wersja testowa! Automatyczne pobieranie danych za pomocą narzędzi lub skryptów to umożliwiających jest zabronione.

Dane meteo z obszaru Polski uzyskane na podstawie depesz SYNOP pobieranych co godzinę z NWS. Najedź myszką na symbol przedstawiony w tabeli, aby uzyskać informacje co do jego znaczenia. Prosimy pamiętać, że to testowa wersja strony, która jeszcze nie jest ukończona. Stworzono również jest krótki FAQ dotyczący korzystania z tej podstrony Anomalie temperatury w chwili obecnej odniesione są do okresu referencyjnego 1951-2016. Okres ten będzie później zmieniony na 1981-2010. Kliknij ikonę aby pobrać plik CSV. Kliknij ikonę aby wygenerować mapę synoptyczną dla danego terminu.

Wybierz Datę:    

        

Rzeszów-Jasionka (12580)

Dane terminowe dla wybranej stacji. Kliknij datę, aby otrzymać dane z tego terminu dla wszystkich stacji.

TemperaturaZachmurzenieWiatrCiśnienieOpadyPogoda
 Data t td wb tx tn tg rh  Nt Nl Cl Cm Ch ws wd g1 g2 wx mslp ppp ch 24h 12h t ww ww w1 w2  
2019-07-04 23:00:00 12.5 7.0 9.2--- 6930.0wx-2wx--21018.3 992.2 -0.7---------
2019-07-04 22:00:00 13.6 6.9 9.7--- 6430.0wx-wx2wx--21018.6 992.6 -0.2---------
2019-07-04 21:00:00 13.3 7.1 9.6--- 6630.0wx-wx2wx--21018.8 992.8 0.1---------
2019-07-04 20:00:00 15.6 6.6 10.5--- 5530.0wx-wx2wx--21018.7 992.9 -0.2---------
2019-07-04 19:00:00 16.3 6.7 10.9--- 5330.0wx-2wx--21018.6 992.8 -0.6---------
2019-07-04 18:00:00 20.3 3.9 11.7 23.2 15.0- 3430.0wx-3wx-1231018.1 992.7 -0.9- 0.012------
2019-07-04 17:00:00 21.9 3.5 12.2--- 3030.0wx-4wx--41018.4 993.1 -1.0---------
2019-07-04 16:00:00 22.4 4.0 12.6--- 3030.0wxwxwx5wx---1018.6 993.4 -1.3---------
2019-07-04 15:00:00 22.4 4.0 12.6--- 3030.0wxwxwx4wx-1241018.8 993.6 -1.4---------
2019-07-04 14:00:00 21.9 3.5 12.2--- 3030.0wxwxwx7wx-1271019.4 994.1 -1.2---------
2019-07-04 13:00:00 20.9 4.0 12.0--- 3330.0wxwxwx7wx-1171020.1 994.7 -0.8---------
2019-07-04 12:00:00 21.6 3.7 12.2--- 3130.0wxwxwx5wx---1020.3 995.0 -0.7---------
2019-07-04 11:00:00 20.6 4.2 11.9--- 3430.0wxwxwx5wx-1151020.7 995.3 -0.4---------
2019-07-04 10:00:00 20.1 3.3 11.4--- 3330.0wxwxwx3wx-1031021.0 995.5 -0.4---------
2019-07-04 09:00:00 19.4 4.3 11.4--- 3730.0wxwxwxwx3wx8831021.3 995.7 -0.2---------
2019-07-04 08:00:00 19.1 6.2 12.0--- 4330.0wxwxwxwx2wx--21021.3 995.7 0.0---------
2019-07-04 07:00:00 17.3 6.2 11.1--- 4830.0wxwxwx2wx---1021.6 995.9 0.2---------
2019-07-04 06:00:00 15.2 7.2 10.6 19.9 8.2 5 5930.0wxwxwx2wx--21021.8 995.9 0.6- 0.012------
2019-07-04 05:00:00 13.5 7.9 10.1--- 6930.0wx-wx2wx--21021.8 995.7 0.6---------
2019-07-04 04:00:00 10.6 8.0 8.9--- 8430.0wx-wx2wx--21022.1 995.7 0.6---------
2019-07-04 03:00:00 8.7 6.7 7.4--- 8730.0wx-wx3wx--31021.8 995.3 0.2---------
2019-07-04 02:00:00 9.8 6.5 7.7--- 8030.0wx-wx2wx--21021.5 995.1 -0.1---------
2019-07-04 01:00:00 10.0 7.1 8.1--- 8230.0wx-wx2wx--21021.5 995.1 -0.2---------
2019-07-04 00:00:00 8.3 5.9 6.8--- 8530.0wx-wx1wx--11021.7 995.1 0.4- 0.06------
2019-07-03 23:00:00 11.5 5.8 8.2--- 6830.0wx-2wx--21021.5 995.2 1.0---------
2019-07-03 22:00:00 11.6 6.1 8.4--- 6930.0wx-1wx--11021.6 995.3 1.7---------
2019-07-03 21:00:00 13.8 4.9 8.9--- 5530.0wx-2wx--21020.7 994.7 1.5---------
2019-07-03 20:00:00 14.7 5.2 9.5--- 5330.0wxwxwx2wx--21020.1 994.2 1.2---------
2019-07-03 19:00:00 16.9 5.2 10.5--- 4630.0wxwxwx2wx--21019.3 993.6 0.8---------
2019-07-03 18:00:00 19.9 3.6 11.4 23.6 17.6- 3430.0wxwxwx3wx-1231018.6 993.2 0.5- 0.012------
2019-07-03 17:00:00 21.3 3.5 12.0--- 3130.0wxwxwxwx5wx--51018.3 993.0 0.0---------
2019-07-03 16:00:00 22.0 4.1 12.5--- 3130.0wxwxwx5wx-1151018.1 992.8 -0.3---------
2019-07-03 15:00:00 23.0 4.5 13.1--- 3030.0wxwxwx6wx-1261017.9 992.7 -0.3---------
2019-07-03 14:00:00 23.3 3.8 13.0--- 2830.0wxwxwx6wx-1261018.1 993.0 -0.2---------
2019-07-03 13:00:00 22.4 4.0 12.6--- 3030.0wxwxwx7wx-1171018.3 993.1 -0.3---------
2019-07-03 12:00:00 23.1 4.6 13.2--- 3030.0wxwxwx6wx12--1018.2 993.0 -0.4---------
2019-07-03 11:00:00 20.3 5.5 12.3--- 3830.0wxwxwx6wx--61018.6 993.2 -0.2---------
2019-07-03 10:00:00 20.7 7.0 13.0--- 4130.0wxwxwxwx7wx--71018.8 993.4 0.4---------
2019-07-03 09:00:00 19.7 6.8 12.5--- 4330.0wxwxwxwx5wx--51018.9 993.4 0.4---------
2019-07-03 08:00:00 19.7 6.8 12.5--- 4330.0wxwxwx5wx--51018.9 993.4 0.3---------
2019-07-03 07:00:00 18.9 7.9 12.6--- 4930.0wxwxwx3wx--31018.5 993.0 0.3---------
2019-07-03 06:00:00 17.6 9.2 12.6 23.4 11.2 9 5830.0wxwxwx2wx--21018.6 993.0 0.4- 0.012------
2019-07-03 05:00:00 16.8 8.7 12.0--- 5930.0wxwxwx2wx--21018.8 993.1 1.1---------
2019-07-03 04:00:00 13.0 10.2 11.1--- 8330.0wxwxwx2wx--21018.8 992.7 0.9---------
2019-07-03 03:00:00 11.5 9.1 9.9--- 8530.0wxwxwx3wx--31018.8 992.6 1.1---------
2019-07-03 02:00:00 12.5 8.8 10.1--- 7830.0wxwxwx2wx--21018.1 992.0 0.6---------
2019-07-03 01:00:00 14.3 8.7 10.9--- 6930.0wxwxwx2wx--21017.7 991.8 0.5---------
2019-07-03 00:00:00 13.9 9.5 11.1--- 7530.0wxwxwx2wx--21017.4 991.5 0.5- 0.06------
1.2 ms

 

Print Friendly, PDF & Email